sensor_id;sensor_type;location;lat;lon;timestamp;P1;durP1;ratioP1;P2;durP2;ratioP2
67564;SDS011;54393;53.556;49.216;2023-12-14T00:01:35;1.48;;;1.37;;
67564;SDS011;54393;53.556;49.216;2023-12-14T00:04:05;2.10;;;1.60;;
67564;SDS011;54393;53.556;49.216;2023-12-14T00:06:31;1.40;;;1.30;;
67564;SDS011;54393;53.556;49.216;2023-12-14T00:08:58;1.60;;;1.50;;
67564;SDS011;54393;53.556;49.216;2023-12-14T00:11:24;3.45;;;1.92;;
67564;SDS011;54393;53.556;49.216;2023-12-14T00:13:51;2.53;;;1.98;;
67564;SDS011;54393;53.556;49.216;2023-12-14T00:16:17;1.50;;;1.40;;
67564;SDS011;54393;53.556;49.216;2023-12-14T00:18:43;1.95;;;1.75;;
67564;SDS011;54393;53.556;49.216;2023-12-14T00:21:10;1.33;;;1.23;;
67564;SDS011;54393;53.556;49.216;2023-12-14T00:23:36;1.50;;;1.40;;
67564;SDS011;54393;53.556;49.216;2023-12-14T00:26:03;3.85;;;1.62;;
67564;SDS011;54393;53.556;49.216;2023-12-14T00:28:29;2.05;;;1.48;;
67564;SDS011;54393;53.556;49.216;2023-12-14T00:30:56;1.52;;;1.35;;
67564;SDS011;54393;53.556;49.216;2023-12-14T00:33:23;1.55;;;1.45;;
67564;SDS011;54393;53.556;49.216;2023-12-14T00:35:49;1.50;;;1.40;;
67564;SDS011;54393;53.556;49.216;2023-12-14T00:38:16;1.52;;;1.42;;
67564;SDS011;54393;53.556;49.216;2023-12-14T00:40:42;1.70;;;1.25;;
67564;SDS011;54393;53.556;49.216;2023-12-14T00:43:09;1.60;;;1.50;;
67564;SDS011;54393;53.556;49.216;2023-12-14T00:45:35;1.70;;;1.48;;
67564;SDS011;54393;53.556;49.216;2023-12-14T00:48:02;1.52;;;1.35;;
67564;SDS011;54393;53.556;49.216;2023-12-14T00:50:28;1.70;;;1.60;;
67564;SDS011;54393;53.556;49.216;2023-12-14T00:52:55;1.45;;;1.30;;
67564;SDS011;54393;53.556;49.216;2023-12-14T00:55:21;2.22;;;1.60;;
67564;SDS011;54393;53.556;49.216;2023-12-14T00:57:48;1.60;;;1.50;;
67564;SDS011;54393;53.556;49.216;2023-12-14T01:00:14;3.05;;;1.75;;
67564;SDS011;54393;53.556;49.216;2023-12-14T01:02:41;3.40;;;1.45;;
67564;SDS011;54393;53.556;49.216;2023-12-14T01:05:07;1.37;;;1.30;;
67564;SDS011;54393;53.556;49.216;2023-12-14T01:07:34;2.58;;;1.55;;
67564;SDS011;54393;53.556;49.216;2023-12-14T01:10:01;1.70;;;1.60;;
67564;SDS011;54393;53.556;49.216;2023-12-14T01:12:28;2.10;;;1.45;;
67564;SDS011;54393;53.556;49.216;2023-12-14T01:14:54;1.73;;;1.62;;
67564;SDS011;54393;53.556;49.216;2023-12-14T01:17:21;1.80;;;1.70;;
67564;SDS011;54393;53.556;49.216;2023-12-14T01:19:47;2.15;;;1.37;;
67564;SDS011;54393;53.556;49.216;2023-12-14T01:22:14;1.45;;;1.35;;
67564;SDS011;54393;53.556;49.216;2023-12-14T01:24:40;1.67;;;1.55;;
67564;SDS011;54393;53.556;49.216;2023-12-14T01:27:07;1.60;;;1.30;;
67564;SDS011;54393;53.556;49.216;2023-12-14T01:29:35;1.90;;;1.25;;
67564;SDS011;54393;53.556;49.216;2023-12-14T01:32:01;1.95;;;1.70;;
67564;SDS011;54393;53.556;49.216;2023-12-14T01:34:28;2.87;;;1.70;;
67564;SDS011;54393;53.556;49.216;2023-12-14T01:36:54;1.40;;;1.30;;
67564;SDS011;54393;53.556;49.216;2023-12-14T01:39:21;1.30;;;1.20;;
67564;SDS011;54393;53.556;49.216;2023-12-14T01:41:47;1.83;;;1.50;;
67564;SDS011;54393;53.556;49.216;2023-12-14T01:44:14;1.70;;;1.60;;
67564;SDS011;54393;53.556;49.216;2023-12-14T01:46:41;1.40;;;1.30;;
67564;SDS011;54393;53.556;49.216;2023-12-14T01:49:07;1.80;;;1.50;;
67564;SDS011;54393;53.556;49.216;2023-12-14T01:51:33;1.60;;;1.30;;
67564;SDS011;54393;53.556;49.216;2023-12-14T01:54:00;1.55;;;1.45;;
67564;SDS011;54393;53.556;49.216;2023-12-14T01:56:27;1.50;;;1.40;;
67564;SDS011;54393;53.556;49.216;2023-12-14T01:58:54;1.62;;;1.45;;
67564;SDS011;54393;53.556;49.216;2023-12-14T02:01:37;1.60;;;1.33;;
67564;SDS011;54393;53.556;49.216;2023-12-14T02:04:08;1.87;;;1.67;;
67564;SDS011;54393;53.556;49.216;2023-12-14T02:06:35;1.48;;;1.37;;
67564;SDS011;54393;53.556;49.216;2023-12-14T02:09:02;1.62;;;1.52;;
67564;SDS011;54393;53.556;49.216;2023-12-14T02:11:28;0.80;;;0.80;;
67564;SDS011;54393;53.556;49.216;2023-12-14T02:13:55;1.52;;;1.27;;
67564;SDS011;54393;53.556;49.216;2023-12-14T02:16:21;2.08;;;1.35;;
67564;SDS011;54393;53.556;49.216;2023-12-14T02:18:49;1.70;;;1.60;;
67564;SDS011;54393;53.556;49.216;2023-12-14T02:21:15;1.75;;;1.27;;
67564;SDS011;54393;53.556;49.216;2023-12-14T02:23:44;1.85;;;1.50;;
67564;SDS011;54393;53.556;49.216;2023-12-14T02:26:14;3.67;;;1.90;;
67564;SDS011;54393;53.556;49.216;2023-12-14T02:28:40;1.33;;;1.23;;
67564;SDS011;54393;53.556;49.216;2023-12-14T02:31:07;1.27;;;1.15;;
67564;SDS011;54393;53.556;49.216;2023-12-14T02:33:33;1.48;;;1.35;;
67564;SDS011;54393;53.556;49.216;2023-12-14T02:36:00;2.90;;;1.40;;
67564;SDS011;54393;53.556;49.216;2023-12-14T02:38:29;1.40;;;1.30;;
67564;SDS011;54393;53.556;49.216;2023-12-14T02:40:55;1.23;;;1.15;;
67564;SDS011;54393;53.556;49.216;2023-12-14T02:43:22;2.37;;;1.75;;
67564;SDS011;54393;53.556;49.216;2023-12-14T02:45:49;1.30;;;1.20;;
67564;SDS011;54393;53.556;49.216;2023-12-14T02:48:15;1.33;;;1.23;;
67564;SDS011;54393;53.556;49.216;2023-12-14T02:50:42;2.10;;;1.70;;
67564;SDS011;54393;53.556;49.216;2023-12-14T02:53:08;1.80;;;1.40;;
67564;SDS011;54393;53.556;49.216;2023-12-14T02:55:35;1.87;;;1.48;;
67564;SDS011;54393;53.556;49.216;2023-12-14T02:58:02;1.48;;;1.33;;
67564;SDS011;54393;53.556;49.216;2023-12-14T03:00:28;1.75;;;1.48;;
67564;SDS011;54393;53.556;49.216;2023-12-14T03:02:55;1.37;;;1.27;;
67564;SDS011;54393;53.556;49.216;2023-12-14T03:05:21;2.58;;;1.77;;
67564;SDS011;54393;53.556;49.216;2023-12-14T03:07:48;1.33;;;1.23;;
67564;SDS011;54393;53.556;49.216;2023-12-14T03:10:14;2.12;;;1.35;;
67564;SDS011;54393;53.556;49.216;2023-12-14T03:12:41;1.62;;;1.50;;
67564;SDS011;54393;53.556;49.216;2023-12-14T03:15:07;2.03;;;1.30;;
67564;SDS011;54393;53.556;49.216;2023-12-14T03:17:34;1.98;;;1.35;;
67564;SDS011;54393;53.556;49.216;2023-12-14T03:20:01;5.55;;;1.87;;
67564;SDS011;54393;53.556;49.216;2023-12-14T03:22:28;2.15;;;1.92;;
67564;SDS011;54393;53.556;49.216;2023-12-14T03:24:55;1.87;;;1.67;;
67564;SDS011;54393;53.556;49.216;2023-12-14T03:27:21;3.83;;;1.75;;
67564;SDS011;54393;53.556;49.216;2023-12-14T03:29:49;1.98;;;1.15;;
67564;SDS011;54393;53.556;49.216;2023-12-14T03:32:16;2.17;;;1.48;;
67564;SDS011;54393;53.556;49.216;2023-12-14T03:34:42;1.27;;;1.17;;
67564;SDS011;54393;53.556;49.216;2023-12-14T03:37:09;1.30;;;1.20;;
67564;SDS011;54393;53.556;49.216;2023-12-14T03:39:35;1.98;;;1.58;;
67564;SDS011;54393;53.556;49.216;2023-12-14T03:42:02;1.73;;;1.50;;
67564;SDS011;54393;53.556;49.216;2023-12-14T03:44:29;1.58;;;1.48;;
67564;SDS011;54393;53.556;49.216;2023-12-14T03:46:55;1.95;;;1.40;;
67564;SDS011;54393;53.556;49.216;2023-12-14T03:49:23;2.42;;;1.20;;
67564;SDS011;54393;53.556;49.216;2023-12-14T03:51:49;1.23;;;1.10;;
67564;SDS011;54393;53.556;49.216;2023-12-14T03:54:16;2.00;;;1.48;;
67564;SDS011;54393;53.556;49.216;2023-12-14T03:56:42;2.15;;;1.50;;
67564;SDS011;54393;53.556;49.216;2023-12-14T03:59:09;2.45;;;1.50;;
67564;SDS011;54393;53.556;49.216;2023-12-14T04:01:35;2.03;;;1.65;;
67564;SDS011;54393;53.556;49.216;2023-12-14T04:04:04;1.17;;;1.08;;
67564;SDS011;54393;53.556;49.216;2023-12-14T04:06:31;1.37;;;1.25;;
67564;SDS011;54393;53.556;49.216;2023-12-14T04:08:57;1.62;;;1.35;;
67564;SDS011;54393;53.556;49.216;2023-12-14T04:11:24;1.05;;;1.00;;
67564;SDS011;54393;53.556;49.216;2023-12-14T04:13:50;2.87;;;1.55;;
67564;SDS011;54393;53.556;49.216;2023-12-14T04:16:22;1.55;;;1.27;;
67564;SDS011;54393;53.556;49.216;2023-12-14T04:18:48;1.60;;;1.50;;
67564;SDS011;54393;53.556;49.216;2023-12-14T04:21:15;2.80;;;1.62;;
67564;SDS011;54393;53.556;49.216;2023-12-14T04:23:41;2.08;;;1.58;;
67564;SDS011;54393;53.556;49.216;2023-12-14T04:26:08;1.67;;;1.50;;
67564;SDS011;54393;53.556;49.216;2023-12-14T04:28:35;1.70;;;1.60;;
67564;SDS011;54393;53.556;49.216;2023-12-14T04:31:01;3.12;;;1.40;;
67564;SDS011;54393;53.556;49.216;2023-12-14T04:33:28;2.05;;;1.50;;
67564;SDS011;54393;53.556;49.216;2023-12-14T04:35:54;3.55;;;1.30;;
67564;SDS011;54393;53.556;49.216;2023-12-14T04:38:21;2.28;;;1.70;;
67564;SDS011;54393;53.556;49.216;2023-12-14T04:40:47;2.80;;;1.30;;
67564;SDS011;54393;53.556;49.216;2023-12-14T04:43:14;1.60;;;1.50;;
67564;SDS011;54393;53.556;49.216;2023-12-14T04:45:41;1.73;;;1.62;;
67564;SDS011;54393;53.556;49.216;2023-12-14T04:48:07;2.33;;;1.70;;
67564;SDS011;54393;53.556;49.216;2023-12-14T04:50:33;2.55;;;1.35;;
67564;SDS011;54393;53.556;49.216;2023-12-14T04:53:00;2.03;;;1.33;;
67564;SDS011;54393;53.556;49.216;2023-12-14T04:55:27;2.47;;;1.52;;
67564;SDS011;54393;53.556;49.216;2023-12-14T04:57:53;2.17;;;1.37;;
67564;SDS011;54393;53.556;49.216;2023-12-14T05:00:20;1.50;;;1.40;;
67564;SDS011;54393;53.556;49.216;2023-12-14T05:02:47;3.58;;;1.50;;
67564;SDS011;54393;53.556;49.216;2023-12-14T05:05:16;1.48;;;1.35;;
67564;SDS011;54393;53.556;49.216;2023-12-14T05:07:42;1.70;;;1.60;;
67564;SDS011;54393;53.556;49.216;2023-12-14T05:10:09;1.73;;;1.33;;
67564;SDS011;54393;53.556;49.216;2023-12-14T05:12:36;3.33;;;1.75;;
67564;SDS011;54393;53.556;49.216;2023-12-14T05:15:04;1.60;;;1.30;;
67564;SDS011;54393;53.556;49.216;2023-12-14T05:17:31;2.08;;;1.80;;
67564;SDS011;54393;53.556;49.216;2023-12-14T05:19:57;3.25;;;1.70;;
67564;SDS011;54393;53.556;49.216;2023-12-14T05:22:24;2.55;;;1.27;;
67564;SDS011;54393;53.556;49.216;2023-12-14T05:24:50;4.12;;;1.35;;
67564;SDS011;54393;53.556;49.216;2023-12-14T05:27:17;1.35;;;1.20;;
67564;SDS011;54393;53.556;49.216;2023-12-14T05:29:43;1.52;;;1.40;;
67564;SDS011;54393;53.556;49.216;2023-12-14T05:32:10;1.23;;;1.12;;
67564;SDS011;54393;53.556;49.216;2023-12-14T05:34:36;3.12;;;1.62;;
67564;SDS011;54393;53.556;49.216;2023-12-14T05:37:03;2.00;;;1.60;;
67564;SDS011;54393;53.556;49.216;2023-12-14T05:39:30;2.72;;;1.30;;
67564;SDS011;54393;53.556;49.216;2023-12-14T05:41:56;1.40;;;1.30;;
67564;SDS011;54393;53.556;49.216;2023-12-14T05:44:22;1.70;;;1.60;;
67564;SDS011;54393;53.556;49.216;2023-12-14T05:46:50;1.70;;;1.30;;
67564;SDS011;54393;53.556;49.216;2023-12-14T05:49:16;2.85;;;1.77;;
67564;SDS011;54393;53.556;49.216;2023-12-14T05:51:43;3.85;;;1.48;;
67564;SDS011;54393;53.556;49.216;2023-12-14T05:54:09;2.05;;;1.42;;
67564;SDS011;54393;53.556;49.216;2023-12-14T05:56:36;2.05;;;1.65;;
67564;SDS011;54393;53.556;49.216;2023-12-14T05:59:02;1.98;;;1.40;;
67564;SDS011;54393;53.556;49.216;2023-12-14T06:01:29;1.83;;;1.58;;
67564;SDS011;54393;53.556;49.216;2023-12-14T06:03:55;1.87;;;1.40;;
67564;SDS011;54393;53.556;49.216;2023-12-14T06:06:22;1.55;;;1.30;;
67564;SDS011;54393;53.556;49.216;2023-12-14T06:08:49;1.75;;;1.35;;
67564;SDS011;54393;53.556;49.216;2023-12-14T06:11:15;2.62;;;1.25;;
67564;SDS011;54393;53.556;49.216;2023-12-14T06:13:42;2.42;;;1.48;;
67564;SDS011;54393;53.556;49.216;2023-12-14T06:16:08;2.10;;;1.37;;
67564;SDS011;54393;53.556;49.216;2023-12-14T06:18:38;3.87;;;1.80;;
67564;SDS011;54393;53.556;49.216;2023-12-14T06:21:06;2.78;;;1.70;;
67564;SDS011;54393;53.556;49.216;2023-12-14T06:23:34;2.25;;;1.50;;
67564;SDS011;54393;53.556;49.216;2023-12-14T06:26:04;2.87;;;1.20;;
67564;SDS011;54393;53.556;49.216;2023-12-14T06:28:31;2.85;;;1.30;;
67564;SDS011;54393;53.556;49.216;2023-12-14T06:30:57;2.20;;;1.62;;
67564;SDS011;54393;53.556;49.216;2023-12-14T06:33:24;5.40;;;1.60;;
67564;SDS011;54393;53.556;49.216;2023-12-14T06:35:50;1.65;;;1.30;;
67564;SDS011;54393;53.556;49.216;2023-12-14T06:38:17;2.33;;;1.00;;
67564;SDS011;54393;53.556;49.216;2023-12-14T06:40:43;1.42;;;1.33;;
67564;SDS011;54393;53.556;49.216;2023-12-14T06:43:10;1.40;;;1.10;;
67564;SDS011;54393;53.556;49.216;2023-12-14T06:45:36;4.82;;;1.30;;
67564;SDS011;54393;53.556;49.216;2023-12-14T06:48:03;1.40;;;1.30;;
67564;SDS011;54393;53.556;49.216;2023-12-14T06:50:30;3.78;;;1.20;;
67564;SDS011;54393;53.556;49.216;2023-12-14T06:52:57;2.22;;;1.37;;
67564;SDS011;54393;53.556;49.216;2023-12-14T06:55:23;3.42;;;1.40;;
67564;SDS011;54393;53.556;49.216;2023-12-14T06:57:50;3.08;;;1.33;;
67564;SDS011;54393;53.556;49.216;2023-12-14T07:00:17;3.17;;;1.48;;
67564;SDS011;54393;53.556;49.216;2023-12-14T07:02:44;1.90;;;1.30;;
67564;SDS011;54393;53.556;49.216;2023-12-14T07:05:10;1.45;;;1.33;;
67564;SDS011;54393;53.556;49.216;2023-12-14T07:07:37;2.47;;;1.30;;
67564;SDS011;54393;53.556;49.216;2023-12-14T07:10:03;3.67;;;1.42;;
67564;SDS011;54393;53.556;49.216;2023-12-14T07:12:31;1.67;;;1.27;;
67564;SDS011;54393;53.556;49.216;2023-12-14T07:14:57;2.37;;;1.73;;
67564;SDS011;54393;53.556;49.216;2023-12-14T07:17:23;2.90;;;1.30;;
67564;SDS011;54393;53.556;49.216;2023-12-14T07:19:50;3.20;;;1.52;;
67564;SDS011;54393;53.556;49.216;2023-12-14T07:22:17;2.47;;;1.23;;
67564;SDS011;54393;53.556;49.216;2023-12-14T07:24:44;3.33;;;1.67;;
67564;SDS011;54393;53.556;49.216;2023-12-14T07:27:10;2.45;;;1.70;;
67564;SDS011;54393;53.556;49.216;2023-12-14T07:29:37;2.85;;;1.42;;
67564;SDS011;54393;53.556;49.216;2023-12-14T07:32:04;3.35;;;1.65;;
67564;SDS011;54393;53.556;49.216;2023-12-14T07:34:30;4.50;;;1.67;;
67564;SDS011;54393;53.556;49.216;2023-12-14T07:36:57;4.72;;;1.52;;
67564;SDS011;54393;53.556;49.216;2023-12-14T07:39:23;2.70;;;1.45;;
67564;SDS011;54393;53.556;49.216;2023-12-14T07:41:51;4.70;;;1.58;;
67564;SDS011;54393;53.556;49.216;2023-12-14T07:44:17;4.43;;;2.17;;
67564;SDS011;54393;53.556;49.216;2023-12-14T07:46:45;5.32;;;2.10;;
67564;SDS011;54393;53.556;49.216;2023-12-14T07:49:11;5.82;;;2.55;;
67564;SDS011;54393;53.556;49.216;2023-12-14T07:51:38;4.95;;;2.08;;
67564;SDS011;54393;53.556;49.216;2023-12-14T07:54:04;7.25;;;2.42;;
67564;SDS011;54393;53.556;49.216;2023-12-14T07:56:31;6.40;;;2.40;;
67564;SDS011;54393;53.556;49.216;2023-12-14T07:58:58;5.78;;;2.45;;
67564;SDS011;54393;53.556;49.216;2023-12-14T08:01:25;7.72;;;2.60;;
67564;SDS011;54393;53.556;49.216;2023-12-14T08:03:51;8.38;;;2.95;;
67564;SDS011;54393;53.556;49.216;2023-12-14T08:06:18;6.22;;;2.50;;
67564;SDS011;54393;53.556;49.216;2023-12-14T08:08:44;4.28;;;2.37;;
67564;SDS011;54393;53.556;49.216;2023-12-14T08:11:11;5.35;;;3.08;;
67564;SDS011;54393;53.556;49.216;2023-12-14T08:13:37;5.80;;;2.55;;
67564;SDS011;54393;53.556;49.216;2023-12-14T08:16:04;5.30;;;2.35;;
67564;SDS011;54393;53.556;49.216;2023-12-14T08:18:30;6.62;;;2.78;;
67564;SDS011;54393;53.556;49.216;2023-12-14T08:20:57;7.00;;;2.30;;
67564;SDS011;54393;53.556;49.216;2023-12-14T08:23:23;5.75;;;3.03;;
67564;SDS011;54393;53.556;49.216;2023-12-14T08:25:55;5.65;;;2.65;;
67564;SDS011;54393;53.556;49.216;2023-12-14T08:28:23;6.32;;;2.20;;
67564;SDS011;54393;53.556;49.216;2023-12-14T08:30:49;8.10;;;3.00;;
67564;SDS011;54393;53.556;49.216;2023-12-14T08:33:20;6.22;;;2.60;;
67564;SDS011;54393;53.556;49.216;2023-12-14T08:35:49;4.87;;;2.22;;
67564;SDS011;54393;53.556;49.216;2023-12-14T08:38:16;9.05;;;2.37;;
67564;SDS011;54393;53.556;49.216;2023-12-14T08:40:42;6.72;;;2.17;;
67564;SDS011;54393;53.556;49.216;2023-12-14T08:43:09;5.05;;;2.53;;
67564;SDS011;54393;53.556;49.216;2023-12-14T08:45:35;3.40;;;2.33;;
67564;SDS011;54393;53.556;49.216;2023-12-14T08:48:02;5.30;;;1.92;;
67564;SDS011;54393;53.556;49.216;2023-12-14T08:50:28;4.18;;;2.08;;
67564;SDS011;54393;53.556;49.216;2023-12-14T08:52:55;4.40;;;1.90;;
67564;SDS011;54393;53.556;49.216;2023-12-14T08:55:24;9.20;;;2.15;;
67564;SDS011;54393;53.556;49.216;2023-12-14T08:57:50;4.80;;;2.08;;
67564;SDS011;54393;53.556;49.216;2023-12-14T09:00:17;4.03;;;2.15;;
67564;SDS011;54393;53.556;49.216;2023-12-14T09:02:44;4.85;;;2.22;;
67564;SDS011;54393;53.556;49.216;2023-12-14T09:05:14;5.97;;;2.42;;
67564;SDS011;54393;53.556;49.216;2023-12-14T09:07:46;2.97;;;1.70;;
67564;SDS011;54393;53.556;49.216;2023-12-14T09:10:12;4.60;;;1.75;;
67564;SDS011;54393;53.556;49.216;2023-12-14T09:12:39;6.50;;;2.17;;
67564;SDS011;54393;53.556;49.216;2023-12-14T09:15:06;5.43;;;1.60;;
67564;SDS011;54393;53.556;49.216;2023-12-14T09:17:32;4.07;;;2.20;;
67564;SDS011;54393;53.556;49.216;2023-12-14T09:19:59;3.30;;;1.87;;
67564;SDS011;54393;53.556;49.216;2023-12-14T09:22:26;2.22;;;1.40;;
67564;SDS011;54393;53.556;49.216;2023-12-14T09:24:52;3.95;;;1.48;;
67564;SDS011;54393;53.556;49.216;2023-12-14T09:27:19;1.83;;;1.48;;
67564;SDS011;54393;53.556;49.216;2023-12-14T09:29:45;3.67;;;1.92;;
67564;SDS011;54393;53.556;49.216;2023-12-14T09:32:12;5.18;;;1.95;;
67564;SDS011;54393;53.556;49.216;2023-12-14T09:34:39;2.78;;;1.40;;
67564;SDS011;54393;53.556;49.216;2023-12-14T09:37:05;3.75;;;1.75;;
67564;SDS011;54393;53.556;49.216;2023-12-14T09:39:32;2.12;;;1.50;;
67564;SDS011;54393;53.556;49.216;2023-12-14T09:42:03;5.53;;;2.05;;
67564;SDS011;54393;53.556;49.216;2023-12-14T09:44:30;5.07;;;1.48;;
67564;SDS011;54393;53.556;49.216;2023-12-14T09:47:01;6.12;;;2.17;;
67564;SDS011;54393;53.556;49.216;2023-12-14T09:49:31;4.80;;;1.60;;
67564;SDS011;54393;53.556;49.216;2023-12-14T09:51:58;2.45;;;1.60;;
67564;SDS011;54393;53.556;49.216;2023-12-14T09:54:25;1.85;;;1.70;;
67564;SDS011;54393;53.556;49.216;2023-12-14T09:56:52;2.22;;;1.58;;
67564;SDS011;54393;53.556;49.216;2023-12-14T09:59:19;2.28;;;1.55;;
67564;SDS011;54393;53.556;49.216;2023-12-14T10:01:46;3.05;;;1.70;;
67564;SDS011;54393;53.556;49.216;2023-12-14T10:06:41;3.83;;;1.87;;
67564;SDS011;54393;53.556;49.216;2023-12-14T10:09:09;2.47;;;1.40;;
67564;SDS011;54393;53.556;49.216;2023-12-14T10:11:39;3.12;;;1.75;;
67564;SDS011;54393;53.556;49.216;2023-12-14T10:14:21;2.47;;;1.50;;
67564;SDS011;54393;53.556;49.216;2023-12-14T10:16:52;1.50;;;1.40;;
67564;SDS011;54393;53.556;49.216;2023-12-14T10:19:18;3.37;;;2.03;;
67564;SDS011;54393;53.556;49.216;2023-12-14T10:21:49;3.42;;;1.62;;
67564;SDS011;54393;53.556;49.216;2023-12-14T10:24:16;3.53;;;1.40;;
67564;SDS011;54393;53.556;49.216;2023-12-14T10:26:46;3.22;;;1.40;;
67564;SDS011;54393;53.556;49.216;2023-12-14T10:29:13;1.75;;;1.25;;
67564;SDS011;54393;53.556;49.216;2023-12-14T10:31:40;2.22;;;1.70;;
67564;SDS011;54393;53.556;49.216;2023-12-14T10:34:08;2.42;;;1.40;;
67564;SDS011;54393;53.556;49.216;2023-12-14T10:36:37;2.58;;;1.60;;
67564;SDS011;54393;53.556;49.216;2023-12-14T10:39:04;4.53;;;1.80;;
67564;SDS011;54393;53.556;49.216;2023-12-14T10:41:31;1.92;;;1.27;;
67564;SDS011;54393;53.556;49.216;2023-12-14T10:43:58;1.48;;;1.33;;
67564;SDS011;54393;53.556;49.216;2023-12-14T10:46:26;1.95;;;1.45;;
67564;SDS011;54393;53.556;49.216;2023-12-14T10:48:53;3.80;;;1.62;;
67564;SDS011;54393;53.556;49.216;2023-12-14T10:51:21;3.83;;;1.52;;
67564;SDS011;54393;53.556;49.216;2023-12-14T10:53:49;3.70;;;1.15;;
67564;SDS011;54393;53.556;49.216;2023-12-14T10:56:17;2.03;;;1.23;;
67564;SDS011;54393;53.556;49.216;2023-12-14T10:58:44;2.78;;;1.73;;
67564;SDS011;54393;53.556;49.216;2023-12-14T11:01:13;3.65;;;1.65;;
67564;SDS011;54393;53.556;49.216;2023-12-14T11:03:41;3.47;;;1.50;;
67564;SDS011;54393;53.556;49.216;2023-12-14T11:06:19;1.92;;;1.45;;
67564;SDS011;54393;53.556;49.216;2023-12-14T11:09:05;3.35;;;1.52;;
67564;SDS011;54393;53.556;49.216;2023-12-14T11:11:43;4.43;;;1.30;;
67564;SDS011;54393;53.556;49.216;2023-12-14T11:14:25;5.82;;;1.90;;
67564;SDS011;54393;53.556;49.216;2023-12-14T11:16:56;2.97;;;1.30;;
67564;SDS011;54393;53.556;49.216;2023-12-14T11:19:27;4.33;;;1.43;;
67564;SDS011;54393;53.556;49.216;2023-12-14T11:24:30;5.82;;;1.60;;
67564;SDS011;54393;53.556;49.216;2023-12-14T11:26:56;8.15;;;1.60;;
67564;SDS011;54393;53.556;49.216;2023-12-14T11:29:24;2.72;;;1.33;;
67564;SDS011;54393;53.556;49.216;2023-12-14T11:31:51;2.92;;;1.35;;
67564;SDS011;54393;53.556;49.216;2023-12-14T11:34:18;8.60;;;1.60;;
67564;SDS011;54393;53.556;49.216;2023-12-14T11:36:44;9.98;;;2.00;;
67564;SDS011;54393;53.556;49.216;2023-12-14T11:39:13;8.68;;;1.80;;
67564;SDS011;54393;53.556;49.216;2023-12-14T11:41:40;5.22;;;1.62;;
67564;SDS011;54393;53.556;49.216;2023-12-14T11:44:06;10.07;;;1.98;;
67564;SDS011;54393;53.556;49.216;2023-12-14T11:46:33;7.30;;;1.73;;
67564;SDS011;54393;53.556;49.216;2023-12-14T11:48:59;4.65;;;1.80;;
67564;SDS011;54393;53.556;49.216;2023-12-14T11:51:28;10.13;;;2.10;;
67564;SDS011;54393;53.556;49.216;2023-12-14T11:53:56;9.35;;;2.33;;
67564;SDS011;54393;53.556;49.216;2023-12-14T11:56:27;12.80;;;2.35;;
67564;SDS011;54393;53.556;49.216;2023-12-14T11:58:56;11.65;;;2.87;;
67564;SDS011;54393;53.556;49.216;2023-12-14T12:01:22;8.02;;;2.03;;
67564;SDS011;54393;53.556;49.216;2023-12-14T12:03:51;12.07;;;2.22;;
67564;SDS011;54393;53.556;49.216;2023-12-14T12:06:24;12.40;;;2.17;;
67564;SDS011;54393;53.556;49.216;2023-12-14T12:08:53;14.20;;;2.85;;
67564;SDS011;54393;53.556;49.216;2023-12-14T12:11:20;17.92;;;3.28;;
67564;SDS011;54393;53.556;49.216;2023-12-14T12:13:51;21.70;;;3.30;;
67564;SDS011;54393;53.556;49.216;2023-12-14T12:16:18;12.20;;;3.10;;
67564;SDS011;54393;53.556;49.216;2023-12-14T12:18:44;14.43;;;2.85;;
67564;SDS011;54393;53.556;49.216;2023-12-14T12:21:11;20.05;;;3.22;;
67564;SDS011;54393;53.556;49.216;2023-12-14T12:23:38;12.93;;;2.40;;
67564;SDS011;54393;53.556;49.216;2023-12-14T12:26:07;16.73;;;2.75;;
67564;SDS011;54393;53.556;49.216;2023-12-14T12:28:34;17.83;;;3.00;;
67564;SDS011;54393;53.556;49.216;2023-12-14T12:31:01;10.95;;;2.72;;
67564;SDS011;54393;53.556;49.216;2023-12-14T12:33:27;11.75;;;2.60;;
67564;SDS011;54393;53.556;49.216;2023-12-14T12:35:55;17.87;;;3.28;;
67564;SDS011;54393;53.556;49.216;2023-12-14T12:38:21;19.15;;;3.25;;
67564;SDS011;54393;53.556;49.216;2023-12-14T12:40:48;14.80;;;2.75;;
67564;SDS011;54393;53.556;49.216;2023-12-14T12:43:14;19.17;;;3.90;;
67564;SDS011;54393;53.556;49.216;2023-12-14T12:45:41;18.70;;;4.22;;
67564;SDS011;54393;53.556;49.216;2023-12-14T12:48:08;20.17;;;3.35;;
67564;SDS011;54393;53.556;49.216;2023-12-14T12:50:35;15.82;;;3.30;;
67564;SDS011;54393;53.556;49.216;2023-12-14T12:53:02;15.05;;;2.92;;
67564;SDS011;54393;53.556;49.216;2023-12-14T12:55:29;22.73;;;4.12;;
67564;SDS011;54393;53.556;49.216;2023-12-14T12:57:55;15.82;;;2.87;;
67564;SDS011;54393;53.556;49.216;2023-12-14T13:00:23;20.83;;;3.40;;
67564;SDS011;54393;53.556;49.216;2023-12-14T13:02:50;13.35;;;2.80;;
67564;SDS011;54393;53.556;49.216;2023-12-14T13:05:17;15.95;;;3.37;;
67564;SDS011;54393;53.556;49.216;2023-12-14T13:07:44;24.37;;;3.58;;
67564;SDS011;54393;53.556;49.216;2023-12-14T13:10:12;11.00;;;3.08;;
67564;SDS011;54393;53.556;49.216;2023-12-14T13:12:39;11.63;;;3.25;;
67564;SDS011;54393;53.556;49.216;2023-12-14T13:15:05;15.60;;;3.53;;
67564;SDS011;54393;53.556;49.216;2023-12-14T13:17:32;19.00;;;3.28;;
67564;SDS011;54393;53.556;49.216;2023-12-14T13:19:59;14.65;;;3.08;;
67564;SDS011;54393;53.556;49.216;2023-12-14T13:22:25;9.98;;;2.67;;
67564;SDS011;54393;53.556;49.216;2023-12-14T13:24:52;12.00;;;3.15;;
67564;SDS011;54393;53.556;49.216;2023-12-14T13:27:19;12.85;;;2.75;;
67564;SDS011;54393;53.556;49.216;2023-12-14T13:29:46;13.30;;;3.22;;
67564;SDS011;54393;53.556;49.216;2023-12-14T13:32:12;10.05;;;2.65;;
67564;SDS011;54393;53.556;49.216;2023-12-14T13:34:38;8.63;;;2.80;;
67564;SDS011;54393;53.556;49.216;2023-12-14T13:37:05;7.82;;;2.67;;
67564;SDS011;54393;53.556;49.216;2023-12-14T13:39:34;8.02;;;2.40;;
67564;SDS011;54393;53.556;49.216;2023-12-14T13:42:04;15.68;;;2.95;;
67564;SDS011;54393;53.556;49.216;2023-12-14T13:44:34;10.60;;;3.17;;
67564;SDS011;54393;53.556;49.216;2023-12-14T13:47:01;9.68;;;2.85;;
67564;SDS011;54393;53.556;49.216;2023-12-14T13:49:31;7.00;;;2.45;;
67564;SDS011;54393;53.556;49.216;2023-12-14T13:51:57;10.27;;;3.33;;
67564;SDS011;54393;53.556;49.216;2023-12-14T13:54:24;12.27;;;2.65;;
67564;SDS011;54393;53.556;49.216;2023-12-14T13:56:50;8.35;;;2.62;;
67564;SDS011;54393;53.556;49.216;2023-12-14T13:59:18;5.15;;;2.45;;
67564;SDS011;54393;53.556;49.216;2023-12-14T14:01:44;6.35;;;2.62;;
67564;SDS011;54393;53.556;49.216;2023-12-14T14:04:16;7.93;;;2.67;;
67564;SDS011;54393;53.556;49.216;2023-12-14T14:06:43;8.32;;;2.47;;
67564;SDS011;54393;53.556;49.216;2023-12-14T14:09:09;6.60;;;2.60;;
67564;SDS011;54393;53.556;49.216;2023-12-14T14:11:36;10.02;;;2.60;;
67564;SDS011;54393;53.556;49.216;2023-12-14T14:14:03;5.00;;;2.20;;
67564;SDS011;54393;53.556;49.216;2023-12-14T14:16:29;6.78;;;2.72;;
67564;SDS011;54393;53.556;49.216;2023-12-14T14:18:56;6.45;;;2.10;;
67564;SDS011;54393;53.556;49.216;2023-12-14T14:21:23;5.28;;;2.28;;
67564;SDS011;54393;53.556;49.216;2023-12-14T14:23:50;7.97;;;2.65;;
67564;SDS011;54393;53.556;49.216;2023-12-14T14:26:16;5.72;;;2.58;;
67564;SDS011;54393;53.556;49.216;2023-12-14T14:28:46;5.45;;;2.50;;
67564;SDS011;54393;53.556;49.216;2023-12-14T14:31:13;4.43;;;2.05;;
67564;SDS011;54393;53.556;49.216;2023-12-14T14:33:39;6.40;;;2.55;;
67564;SDS011;54393;53.556;49.216;2023-12-14T14:36:06;5.93;;;1.85;;
67564;SDS011;54393;53.556;49.216;2023-12-14T14:38:33;4.47;;;2.25;;